Time;durP1;ratioP1;P1;durP2;ratioP2;P2;SDS_P1;SDS_P2;PMS_P1;PMS_P2;Temp;Humidity;BMP_temperature;BMP_pressure;BME280_temperature;BME280_humidity;BME280_pressure;Samples;Min_cycle;Max_cycle;Signal;HPM_P1;HPM_P2
2022/04/30 00:02:15;;;;;;;9.50;5.72;;;;;;;;;;5053120;28;20198;-70
2022/04/30 00:04:43;;;;;;;8.80;5.93;;;;;;;;;;5052697;28;20202;-70
2022/04/30 00:07:10;;;;;;;8.10;5.25;;;;;;;;;;5053015;28;20196;-70
2022/04/30 00:09:37;;;;;;;6.45;4.90;;;;;;;;;;5052496;28;20225;-70
2022/04/30 00:12:05;;;;;;;7.03;4.22;;;;;;;;;;5053012;28;20192;-71
2022/04/30 00:14:33;;;;;;;5.72;5.13;;;;;;;;;;5053230;28;20209;-70
2022/04/30 00:17:01;;;;;;;7.40;5.65;;;;;;;;;;5052988;28;20197;-71
2022/04/30 00:19:29;;;;;;;6.55;5.45;;;;;;;;;;5052795;28;20209;-71
2022/04/30 00:21:57;;;;;;;7.25;5.53;;;;;;;;;;5053249;28;20200;-72
2022/04/30 00:24:24;;;;;;;8.60;5.10;;;;;;;;;;5055690;28;20208;-71
2022/04/30 00:26:52;;;;;;;8.63;5.60;;;;;;;;;;5056724;28;20616;-71
2022/04/30 00:29:19;;;;;;;7.32;4.40;;;;;;;;;;5056481;28;20215;-71
2022/04/30 00:31:46;;;;;;;6.18;4.72;;;;;;;;;;5056381;28;20237;-71
2022/04/30 00:34:15;;;;;;;11.43;6.20;;;;;;;;;;5056381;28;20638;-70
2022/04/30 00:36:42;;;;;;;8.20;4.80;;;;;;;;;;5055962;28;20204;-71
2022/04/30 00:39:09;;;;;;;11.80;4.97;;;;;;;;;;5056545;28;20698;-71
2022/04/30 00:41:36;;;;;;;15.13;5.07;;;;;;;;;;5056337;28;20522;-71
2022/04/30 00:44:04;;;;;;;5.53;4.88;;;;;;;;;;5056611;28;20200;-71
2022/04/30 00:46:31;;;;;;;12.30;6.65;;;;;;;;;;5056111;28;20200;-71
2022/04/30 00:48:58;;;;;;;6.72;5.40;;;;;;;;;;5055784;28;20301;-70
2022/04/30 00:51:28;;;;;;;8.02;5.03;;;;;;;;;;5055998;28;20286;-70
2022/04/30 00:53:56;;;;;;;9.52;5.10;;;;;;;;;;5056045;28;20192;-70
2022/04/30 00:56:25;;;;;;;13.00;5.40;;;;;;;;;;5056197;28;20220;-70
2022/04/30 00:58:55;;;;;;;12.38;6.38;;;;;;;;;;5055640;28;20207;-70
2022/04/30 01:01:23;;;;;;;7.65;5.45;;;;;;;;;;5055898;28;20292;-70
2022/04/30 01:03:51;;;;;;;7.97;6.20;;;;;;;;;;5055887;28;20204;-70
2022/04/30 01:06:21;;;;;;;12.23;5.82;;;;;;;;;;5055287;28;20286;-70
2022/04/30 01:08:50;;;;;;;9.20;5.95;;;;;;;;;;5055817;28;20200;-70
2022/04/30 01:11:17;;;;;;;5.63;4.70;;;;;;;;;;5055216;28;20312;-71
2022/04/30 01:13:45;;;;;;;5.60;5.10;;;;;;;;;;5055378;28;20201;-70
2022/04/30 01:16:13;;;;;;;12.25;6.05;;;;;;;;;;5055483;28;20203;-70
2022/04/30 01:18:40;;;;;;;10.57;6.28;;;;;;;;;;5055183;28;20676;-71
2022/04/30 01:21:11;;;;;;;6.25;4.93;;;;;;;;;;5055249;28;20197;-70
2022/04/30 01:23:42;;;;;;;8.98;5.32;;;;;;;;;;5056052;28;20184;-70
2022/04/30 01:26:10;;;;;;;6.45;4.43;;;;;;;;;;5055653;28;20216;-70
2022/04/30 01:28:38;;;;;;;10.68;6.47;;;;;;;;;;5056223;28;20288;-71
2022/04/30 01:37:22;;;;;;;8.77;5.68;;;;;;;;;;5054823;28;20710;-70
2022/04/30 01:39:23;;;;;;;7.70;6.30;;;;;;;;;;5054863;28;20273;-71
2022/04/30 01:41:50;;;;;;;8.32;5.97;;;;;;;;;;5054993;28;20676;-71
2022/04/30 01:44:19;;;;;;;13.25;6.55;;;;;;;;;;5055150;28;20557;-71
2022/04/30 01:46:46;;;;;;;10.95;6.45;;;;;;;;;;5055305;28;20196;-71
2022/04/30 01:49:16;;;;;;;7.30;6.43;;;;;;;;;;5054955;28;20287;-70
2022/04/30 01:51:48;;;;;;;7.13;6.00;;;;;;;;;;5054615;28;20286;-71
2022/04/30 01:54:16;;;;;;;13.27;7.00;;;;;;;;;;5055538;28;20538;-70
2022/04/30 01:56:44;;;;;;;9.23;5.95;;;;;;;;;;5054819;28;20629;-71
2022/04/30 01:59:12;;;;;;;5.80;5.25;;;;;;;;;;5054865;28;20192;-70
2022/04/30 02:01:39;;;;;;;9.05;6.03;;;;;;;;;;5054396;28;20251;-70
2022/04/30 02:04:07;;;;;;;11.25;6.30;;;;;;;;;;5054732;28;20191;-70
2022/04/30 02:06:34;;;;;;;14.27;6.20;;;;;;;;;;5054766;28;20551;-70
2022/04/30 02:09:01;;;;;;;8.95;5.65;;;;;;;;;;5054823;28;20203;-70
2022/04/30 02:11:29;;;;;;;8.80;6.25;;;;;;;;;;5054188;28;20223;-71
2022/04/30 02:13:58;;;;;;;7.38;6.68;;;;;;;;;;5054551;28;20196;-70
2022/04/30 02:16:26;;;;;;;8.40;5.93;;;;;;;;;;5054242;28;20665;-71
2022/04/30 02:18:54;;;;;;;8.00;6.55;;;;;;;;;;5054494;28;20203;-70
2022/04/30 02:21:23;;;;;;;9.13;6.93;;;;;;;;;;5054272;28;20196;-70
2022/04/30 02:23:50;;;;;;;7.40;5.70;;;;;;;;;;5054010;28;20234;-71
2022/04/30 02:26:18;;;;;;;9.05;6.70;;;;;;;;;;5054395;28;20202;-70
2022/04/30 02:28:45;;;;;;;8.88;7.03;;;;;;;;;;5054279;28;20198;-70
2022/04/30 02:31:23;;;;;;;13.00;7.55;;;;;;;;;;5053805;28;20219;-70
2022/04/30 02:33:50;;;;;;;8.98;6.95;;;;;;;;;;5054528;28;20188;-70
2022/04/30 02:36:17;;;;;;;7.53;5.90;;;;;;;;;;5054085;28;20321;-70
2022/04/30 02:38:44;;;;;;;9.73;6.95;;;;;;;;;;5054529;28;20228;-71
2022/04/30 02:41:12;;;;;;;16.70;8.85;;;;;;;;;;5053711;28;20291;-70
2022/04/30 02:43:40;;;;;;;15.15;6.90;;;;;;;;;;5053989;28;20609;-71
2022/04/30 02:46:07;;;;;;;9.10;6.47;;;;;;;;;;5053774;28;20191;-71
2022/04/30 02:48:35;;;;;;;15.63;5.85;;;;;;;;;;5053843;28;20279;-71
2022/04/30 02:51:03;;;;;;;11.30;6.47;;;;;;;;;;5053784;28;20227;-70
2022/04/30 02:53:30;;;;;;;9.48;6.40;;;;;;;;;;5053846;28;20196;-70
2022/04/30 02:55:59;;;;;;;9.07;6.60;;;;;;;;;;5053762;28;20192;-70
2022/04/30 03:01:11;;;;;;;8.80;7.13;;;;;;;;;;5053518;28;20250;-70
2022/04/30 03:03:40;;;;;;;12.27;7.55;;;;;;;;;;5053605;28;20570;-70
2022/04/30 03:06:09;;;;;;;10.70;7.28;;;;;;;;;;5053730;28;20212;-71
2022/04/30 03:08:37;;;;;;;9.35;5.95;;;;;;;;;;5053776;28;20231;-70
2022/04/30 03:11:05;;;;;;;7.80;6.72;;;;;;;;;;5053637;28;20216;-70
2022/04/30 03:13:32;;;;;;;8.13;6.68;;;;;;;;;;5053579;28;20283;-70
2022/04/30 03:21:41;;;;;;;9.45;6.50;;;;;;;;;;5053604;28;20191;-70
2022/04/30 03:21:44;;;;;;;11.82;6.82;;;;;;;;;;5053253;28;20245;-70
2022/04/30 03:24:11;;;;;;;14.15;6.85;;;;;;;;;;5053426;28;20188;-70
2022/04/30 03:26:38;;;;;;;9.85;7.38;;;;;;;;;;5054243;28;20199;-71
2022/04/30 03:29:05;;;;;;;21.88;7.40;;;;;;;;;;5053346;28;20207;-70
2022/04/30 03:31:33;;;;;;;14.50;7.47;;;;;;;;;;5053356;28;20652;-70
2022/04/30 03:34:01;;;;;;;13.73;7.70;;;;;;;;;;5053344;28;20193;-70
2022/04/30 03:36:29;;;;;;;6.97;6.35;;;;;;;;;;5053237;28;20212;-71
2022/04/30 03:38:56;;;;;;;7.72;6.30;;;;;;;;;;5053424;28;20236;-71
2022/04/30 03:41:23;;;;;;;15.02;8.02;;;;;;;;;;5053425;28;20205;-72
2022/04/30 03:43:51;;;;;;;12.77;7.43;;;;;;;;;;5053174;28;20196;-72
2022/04/30 03:46:18;;;;;;;8.57;6.68;;;;;;;;;;5052957;28;20201;-71
2022/04/30 03:48:47;;;;;;;16.65;9.15;;;;;;;;;;5053272;28;20200;-71
2022/04/30 03:51:16;;;;;;;10.85;7.43;;;;;;;;;;5052777;28;20224;-71
2022/04/30 03:53:43;;;;;;;12.25;8.68;;;;;;;;;;5052310;28;20227;-71
2022/04/30 03:56:10;;;;;;;13.20;8.07;;;;;;;;;;5052595;28;20199;-71
2022/04/30 03:58:38;;;;;;;9.00;7.10;;;;;;;;;;5054072;28;20654;-71
2022/04/30 04:01:05;;;;;;;11.35;7.20;;;;;;;;;;5056281;28;20213;-71
2022/04/30 04:03:32;;;;;;;15.02;7.97;;;;;;;;;;5056649;28;20196;-71
2022/04/30 04:06:00;;;;;;;14.02;7.68;;;;;;;;;;5056608;28;20192;-71
2022/04/30 04:08:28;;;;;;;9.00;6.90;;;;;;;;;;5056226;28;20307;-71
2022/04/30 04:10:56;;;;;;;10.48;6.50;;;;;;;;;;5056899;28;20243;-71
2022/04/30 04:18:55;;;;;;;11.75;8.00;;;;;;;;;;5056676;28;20191;-71
2022/04/30 04:21:22;;;;;;;14.85;8.48;;;;;;;;;;5056575;28;20200;-71
2022/04/30 04:26:36;;;;;;;11.82;7.97;;;;;;;;;;5056231;28;20670;-71
2022/04/30 04:29:03;;;;;;;11.10;8.35;;;;;;;;;;5056101;28;20197;-71
2022/04/30 04:31:30;;;;;;;14.45;9.10;;;;;;;;;;5056576;28;20306;-71
2022/04/30 04:33:57;;;;;;;14.85;7.93;;;;;;;;;;5056449;28;20254;-71
2022/04/30 04:36:25;;;;;;;14.50;8.15;;;;;;;;;;5056414;28;20286;-71
2022/04/30 04:38:53;;;;;;;11.82;8.13;;;;;;;;;;5056480;28;20233;-71
2022/04/30 04:41:20;;;;;;;12.18;9.02;;;;;;;;;;5056035;28;20210;-71
2022/04/30 04:43:48;;;;;;;8.55;7.60;;;;;;;;;;5055957;28;20198;-72
2022/04/30 04:46:15;;;;;;;9.15;6.90;;;;;;;;;;5056207;28;20291;-71
2022/04/30 04:48:42;;;;;;;12.75;8.35;;;;;;;;;;5055561;28;20658;-71
2022/04/30 04:51:10;;;;;;;12.30;7.05;;;;;;;;;;5056016;28;20227;-71
2022/04/30 04:53:37;;;;;;;11.93;7.05;;;;;;;;;;5056304;28;20199;-71
2022/04/30 04:56:06;;;;;;;8.70;7.20;;;;;;;;;;5056111;28;20197;-71
2022/04/30 04:58:33;;;;;;;10.80;8.15;;;;;;;;;;5056262;28;20281;-71
2022/04/30 05:01:00;;;;;;;14.23;8.15;;;;;;;;;;5056023;28;20203;-71
2022/04/30 05:03:28;;;;;;;10.48;7.20;;;;;;;;;;5055281;28;20721;-71
2022/04/30 05:05:55;;;;;;;12.15;8.30;;;;;;;;;;5055659;28;20218;-71
2022/04/30 05:08:22;;;;;;;15.43;8.60;;;;;;;;;;5055737;28;20200;-71
2022/04/30 05:10:49;;;;;;;18.42;9.20;;;;;;;;;;5055759;28;20216;-70
2022/04/30 05:13:18;;;;;;;11.57;7.60;;;;;;;;;;5055349;28;20207;-71
2022/04/30 05:15:45;;;;;;;14.02;7.65;;;;;;;;;;5055726;28;20201;-71
2022/04/30 05:18:12;;;;;;;9.40;8.48;;;;;;;;;;5055640;28;20195;-71
2022/04/30 05:20:40;;;;;;;10.73;8.63;;;;;;;;;;5055547;28;20200;-71
2022/04/30 05:23:07;;;;;;;12.13;7.90;;;;;;;;;;5055480;28;20703;-71
2022/04/30 05:25:35;;;;;;;11.07;7.75;;;;;;;;;;5055069;28;20203;-71
2022/04/30 05:28:02;;;;;;;13.18;9.38;;;;;;;;;;5055136;28;20208;-73
2022/04/30 05:30:31;;;;;;;12.52;8.05;;;;;;;;;;5055269;28;20203;-71
2022/04/30 05:32:58;;;;;;;14.25;8.43;;;;;;;;;;5055398;28;20226;-67
2022/04/30 05:35:25;;;;;;;12.32;8.30;;;;;;;;;;5055292;28;20207;-66
2022/04/30 05:37:52;;;;;;;11.07;7.40;;;;;;;;;;5054952;28;20583;-69
2022/04/30 05:40:19;;;;;;;13.48;7.63;;;;;;;;;;5055157;28;20206;-68
2022/04/30 05:42:47;;;;;;;10.85;7.15;;;;;;;;;;5055388;28;20201;-69
2022/04/30 05:45:14;;;;;;;11.73;8.65;;;;;;;;;;5054750;28;20198;-68
2022/04/30 05:47:42;;;;;;;14.07;8.27;;;;;;;;;;5054548;28;20202;-69
2022/04/30 05:50:10;;;;;;;12.85;8.32;;;;;;;;;;5054961;28;20197;-69
2022/04/30 05:52:37;;;;;;;17.17;9.63;;;;;;;;;;5054717;28;20215;-69
2022/04/30 05:55:05;;;;;;;12.05;8.20;;;;;;;;;;5054884;28;20193;-68
2022/04/30 05:57:33;;;;;;;14.70;9.23;;;;;;;;;;5054643;28;20197;-68
2022/04/30 06:00:01;;;;;;;11.85;7.03;;;;;;;;;;5054675;28;20266;-69
2022/04/30 06:02:28;;;;;;;13.35;7.60;;;;;;;;;;5054909;28;20249;-69
2022/04/30 06:04:56;;;;;;;15.15;7.90;;;;;;;;;;5054270;28;20659;-69
2022/04/30 06:07:24;;;;;;;14.68;8.75;;;;;;;;;;5054244;28;20210;-69
2022/04/30 06:09:51;;;;;;;15.05;9.50;;;;;;;;;;5054448;28;20197;-69
2022/04/30 06:12:19;;;;;;;17.23;8.15;;;;;;;;;;5054628;28;20227;-69
2022/04/30 06:14:47;;;;;;;11.23;8.52;;;;;;;;;;5054472;28;20208;-69
2022/04/30 06:17:14;;;;;;;13.85;8.57;;;;;;;;;;5054435;28;20613;-69
2022/04/30 06:19:41;;;;;;;17.75;8.68;;;;;;;;;;5054392;28;20201;-69
2022/04/30 06:22:11;;;;;;;11.23;7.65;;;;;;;;;;5054169;28;20203;-68
2022/04/30 06:24:38;;;;;;;11.30;9.02;;;;;;;;;;5053769;28;20185;-68
2022/04/30 06:27:06;;;;;;;10.57;7.95;;;;;;;;;;5054238;28;20559;-69
2022/04/30 06:29:33;;;;;;;10.80;7.80;;;;;;;;;;5053753;28;20196;-68
2022/04/30 06:32:01;;;;;;;14.50;9.43;;;;;;;;;;5054080;28;20228;-68
2022/04/30 06:34:28;;;;;;;12.38;9.45;;;;;;;;;;5054449;28;20203;-68
2022/04/30 06:36:55;;;;;;;22.75;10.02;;;;;;;;;;5053946;28;20208;-68
2022/04/30 06:39:23;;;;;;;17.38;9.15;;;;;;;;;;5054345;28;20225;-68
2022/04/30 06:41:51;;;;;;;13.95;8.80;;;;;;;;;;5053980;28;20203;-68
2022/04/30 06:44:18;;;;;;;12.25;8.98;;;;;;;;;;5053460;28;20288;-68
2022/04/30 06:46:45;;;;;;;10.38;8.20;;;;;;;;;;5053739;28;20192;-68
2022/04/30 06:49:12;;;;;;;10.80;8.80;;;;;;;;;;5053684;28;20199;-68
2022/04/30 06:51:39;;;;;;;8.80;7.38;;;;;;;;;;5053341;28;20229;-68
2022/04/30 06:57:10;;;;;;;12.50;8.98;;;;;;;;;;5053575;28;20180;-68
2022/04/30 06:59:40;;;;;;;13.60;8.93;;;;;;;;;;5053821;28;20195;-68
2022/04/30 07:02:09;;;;;;;14.00;8.50;;;;;;;;;;5053360;28;20662;-68
2022/04/30 07:04:38;;;;;;;9.65;8.20;;;;;;;;;;5053014;28;20206;-69
2022/04/30 07:07:06;;;;;;;15.60;9.00;;;;;;;;;;5053588;28;20671;-68
2022/04/30 07:09:33;;;;;;;15.30;7.78;;;;;;;;;;5053484;28;20202;-69
2022/04/30 07:12:04;;;;;;;10.20;8.27;;;;;;;;;;5053475;28;20224;-68
2022/04/30 07:14:31;;;;;;;10.88;7.63;;;;;;;;;;5053313;28;20614;-69
2022/04/30 07:16:58;;;;;;;15.20;8.25;;;;;;;;;;5053462;28;20192;-69
2022/04/30 07:19:26;;;;;;;10.77;8.27;;;;;;;;;;5053390;28;20552;-69
2022/04/30 07:21:53;;;;;;;8.35;7.55;;;;;;;;;;5053227;28;20198;-68
2022/04/30 07:24:20;;;;;;;9.30;7.47;;;;;;;;;;5053270;28;20292;-68
2022/04/30 07:26:48;;;;;;;9.93;7.05;;;;;;;;;;5053244;28;20615;-68
2022/04/30 07:29:16;;;;;;;11.27;9.30;;;;;;;;;;5052964;28;20652;-69
2022/04/30 07:31:43;;;;;;;9.55;7.63;;;;;;;;;;5053319;28;20223;-68
2022/04/30 07:34:11;;;;;;;12.57;8.80;;;;;;;;;;5056658;28;20205;-68
2022/04/30 07:36:38;;;;;;;13.38;8.65;;;;;;;;;;5057081;28;20285;-71
2022/04/30 07:39:05;;;;;;;10.43;7.70;;;;;;;;;;5057220;28;20317;-71
2022/04/30 07:41:33;;;;;;;8.80;7.85;;;;;;;;;;5057078;28;20202;-71
2022/04/30 07:44:00;;;;;;;10.85;7.53;;;;;;;;;;5057447;28;20197;-70
2022/04/30 07:46:29;;;;;;;9.15;7.47;;;;;;;;;;5056738;28;20669;-72
2022/04/30 07:48:56;;;;;;;10.43;6.80;;;;;;;;;;5057382;28;20285;-71
2022/04/30 07:51:34;;;;;;;10.70;7.55;;;;;;;;;;5057261;28;20226;-71
2022/04/30 07:54:02;;;;;;;9.48;7.28;;;;;;;;;;5057822;28;20214;-70
2022/04/30 07:56:29;;;;;;;9.30;7.10;;;;;;;;;;5056767;28;20197;-71
2022/04/30 07:58:56;;;;;;;10.05;7.07;;;;;;;;;;5056810;28;20579;-71
2022/04/30 08:01:24;;;;;;;9.95;7.50;;;;;;;;;;5057085;28;20699;-71
2022/04/30 08:03:52;;;;;;;10.20;5.68;;;;;;;;;;5056766;28;20674;-69
2022/04/30 08:06:19;;;;;;;7.15;6.03;;;;;;;;;;5056367;28;20203;-69
2022/04/30 08:08:47;;;;;;;8.07;7.25;;;;;;;;;;5056591;28;20207;-69
2022/04/30 08:11:14;;;;;;;9.15;7.07;;;;;;;;;;5056413;28;20205;-71
2022/04/30 08:13:42;;;;;;;8.25;6.38;;;;;;;;;;5056364;28;20235;-69
2022/04/30 08:16:09;;;;;;;10.52;5.90;;;;;;;;;;5056424;28;20190;-70
2022/04/30 08:18:37;;;;;;;6.60;4.90;;;;;;;;;;5056472;28;20652;-70
2022/04/30 08:21:06;;;;;;;9.10;5.50;;;;;;;;;;5056567;28;20284;-70
2022/04/30 08:23:34;;;;;;;6.13;4.80;;;;;;;;;;5056393;28;20531;-70
2022/04/30 08:26:01;;;;;;;12.32;5.90;;;;;;;;;;5056169;28;20199;-71
2022/04/30 08:28:28;;;;;;;7.63;5.88;;;;;;;;;;5056244;28;20657;-71
2022/04/30 08:30:56;;;;;;;8.40;5.33;;;;;;;;;;5056099;28;20564;-71
2022/04/30 08:33:23;;;;;;;9.10;5.50;;;;;;;;;;5056086;28;21069;-70
2022/04/30 08:35:50;;;;;;;6.20;5.35;;;;;;;;;;5056348;28;20195;-71
2022/04/30 08:38:19;;;;;;;8.73;5.67;;;;;;;;;;5055583;28;20719;-70
2022/04/30 08:40:46;;;;;;;7.45;5.35;;;;;;;;;;5056243;28;20529;-70
2022/04/30 08:43:14;;;;;;;6.28;5.28;;;;;;;;;;5055988;28;20199;-70
2022/04/30 08:45:42;;;;;;;10.00;5.80;;;;;;;;;;5055874;28;20240;-70
2022/04/30 08:48:10;;;;;;;7.68;5.13;;;;;;;;;;5055858;28;20456;-70
2022/04/30 08:50:38;;;;;;;7.57;6.63;;;;;;;;;;5056220;28;20195;-71
2022/04/30 08:53:06;;;;;;;7.90;6.25;;;;;;;;;;5055672;28;20225;-71
2022/04/30 08:55:34;;;;;;;8.25;5.72;;;;;;;;;;5055777;28;20201;-71
2022/04/30 08:58:02;;;;;;;5.65;5.10;;;;;;;;;;5055574;28;20208;-70
2022/04/30 09:00:29;;;;;;;5.20;4.25;;;;;;;;;;5055733;28;20542;-70
2022/04/30 09:02:57;;;;;;;10.10;5.80;;;;;;;;;;5055781;28;20199;-70
2022/04/30 09:05:30;;;;;;;5.47;4.73;;;;;;;;;;5055762;28;20473;-70
2022/04/30 09:07:58;;;;;;;5.60;5.10;;;;;;;;;;5055799;28;20918;-71
2022/04/30 09:10:27;;;;;;;5.60;4.87;;;;;;;;;;5055420;28;20195;-71
2022/04/30 09:13:04;;;;;;;7.73;5.97;;;;;;;;;;5055601;28;20485;-71
2022/04/30 09:15:32;;;;;;;8.10;6.27;;;;;;;;;;5055875;28;20433;-71
2022/04/30 09:17:59;;;;;;;8.43;4.30;;;;;;;;;;5055282;28;20441;-71
2022/04/30 09:20:26;;;;;;;6.50;5.80;;;;;;;;;;5055686;28;20445;-70
2022/04/30 09:22:54;;;;;;;7.43;4.57;;;;;;;;;;5055911;28;20802;-71
2022/04/30 09:25:21;;;;;;;5.73;5.23;;;;;;;;;;5055191;28;20516;-70
2022/04/30 09:27:50;;;;;;;9.30;5.57;;;;;;;;;;5055657;28;20477;-70
2022/04/30 09:30:19;;;;;;;9.57;5.30;;;;;;;;;;5055124;28;20655;-71
2022/04/30 09:32:46;;;;;;;6.57;5.28;;;;;;;;;;5054816;28;20277;-70
2022/04/30 09:38:05;;;;;;;10.50;4.20;;;;;;;;;;5054792;28;20237;-71
2022/04/30 09:40:32;;;;;;;8.93;4.53;;;;;;;;;;5054721;28;20536;-70
2022/04/30 09:43:01;;;;;;;12.80;8.77;;;;;;;;;;5055237;28;20248;-70
2022/04/30 09:45:31;;;;;;;8.37;5.57;;;;;;;;;;5055029;28;20441;-70
2022/04/30 09:47:59;;;;;;;131.87;66.67;;;;;;;;;;5054514;28;20995;-70
2022/04/30 09:55:57;;;;;;;8.83;3.93;;;;;;;;;;5053935;28;20400;-71
2022/04/30 09:58:26;;;;;;;5.13;4.63;;;;;;;;;;5054663;28;20524;-70
2022/04/30 10:00:59;;;;;;;6.37;4.00;;;;;;;;;;5054567;28;20641;-70
2022/04/30 10:03:28;;;;;;;4.15;3.85;;;;;;;;;;5054255;28;20442;-71
2022/04/30 10:05:59;;;;;;;7.43;4.20;;;;;;;;;;5054716;28;20563;-71
2022/04/30 10:08:26;;;;;;;7.97;4.60;;;;;;;;;;5054275;28;20548;-71
2022/04/30 10:10:57;;;;;;;4.50;4.00;;;;;;;;;;5054625;28;20438;-71
2022/04/30 10:13:30;;;;;;;4.50;4.10;;;;;;;;;;5054561;28;20560;-71
2022/04/30 10:16:00;;;;;;;5.10;4.10;;;;;;;;;;5054729;28;20436;-71
2022/04/30 10:18:34;;;;;;;4.53;3.67;;;;;;;;;;5054351;28;20445;-71
2022/04/30 10:21:06;;;;;;;11.60;4.00;;;;;;;;;;5053975;28;20435;-71
2022/04/30 10:23:33;;;;;;;9.27;3.77;;;;;;;;;;5054396;28;20449;-71
2022/04/30 10:26:08;;;;;;;10.10;4.30;;;;;;;;;;5054040;28;20449;-71
2022/04/30 10:28:35;;;;;;;6.00;3.80;;;;;;;;;;5053961;28;20429;-72
2022/04/30 10:31:04;;;;;;;10.90;6.20;;;;;;;;;;5054342;28;20483;-72
2022/04/30 10:33:32;;;;;;;5.60;4.10;;;;;;;;;;5053488;28;20479;-71
2022/04/30 10:36:06;;;;;;;6.63;3.90;;;;;;;;;;5054202;28;20441;-72
2022/04/30 10:38:33;;;;;;;5.33;3.90;;;;;;;;;;5053644;28;20473;-71
2022/04/30 10:41:02;;;;;;;4.43;4.03;;;;;;;;;;5053603;28;20524;-71
2022/04/30 10:43:34;;;;;;;3.90;3.60;;;;;;;;;;5053721;28;20497;-71
2022/04/30 10:46:01;;;;;;;4.87;4.43;;;;;;;;;;5054179;28;20863;-71
2022/04/30 10:48:32;;;;;;;4.07;3.77;;;;;;;;;;5053846;28;20442;-71
2022/04/30 10:51:04;;;;;;;6.43;4.83;;;;;;;;;;5053613;28;20434;-71
2022/04/30 10:53:32;;;;;;;4.10;3.47;;;;;;;;;;5053744;28;20476;-71
2022/04/30 10:55:59;;;;;;;3.90;3.50;;;;;;;;;;5053813;28;20447;-71
2022/04/30 10:58:27;;;;;;;3.70;3.40;;;;;;;;;;5053740;28;20446;-71
2022/04/30 11:00:55;;;;;;;7.83;3.97;;;;;;;;;;5053135;28;20454;-71
2022/04/30 11:03:27;;;;;;;4.37;3.97;;;;;;;;;;5053529;28;20445;-71
2022/04/30 11:05:56;;;;;;;5.47;3.90;;;;;;;;;;5053632;28;20479;-71
2022/04/30 11:08:23;;;;;;;5.30;3.70;;;;;;;;;;5053416;28;20449;-72
2022/04/30 11:10:51;;;;;;;5.93;3.73;;;;;;;;;;5053952;28;20437;-71
2022/04/30 11:13:18;;;;;;;4.50;4.00;;;;;;;;;;5053524;28;20481;-71
2022/04/30 11:15:46;;;;;;;4.70;4.30;;;;;;;;;;5053292;28;20529;-71
2022/04/30 11:18:13;;;;;;;5.30;3.83;;;;;;;;;;5053539;28;20444;-71
2022/04/30 11:20:41;;;;;;;4.13;3.80;;;;;;;;;;5052715;28;20466;-72
2022/04/30 11:23:09;;;;;;;7.73;4.30;;;;;;;;;;5053518;28;20454;-71
2022/04/30 11:25:37;;;;;;;8.53;4.17;;;;;;;;;;5052981;28;20467;-71
2022/04/30 11:28:07;;;;;;;6.97;4.67;;;;;;;;;;5053139;28;20477;-71
2022/04/30 11:30:37;;;;;;;5.30;3.90;;;;;;;;;;5053041;28;20445;-71
2022/04/30 11:33:04;;;;;;;6.70;5.00;;;;;;;;;;5053500;28;20551;-71
2022/04/30 11:35:31;;;;;;;6.93;3.70;;;;;;;;;;5052928;28;20532;-71
2022/04/30 11:37:58;;;;;;;5.50;4.40;;;;;;;;;;5052965;28;20480;-71
2022/04/30 11:40:27;;;;;;;4.63;4.20;;;;;;;;;;5053258;28;20438;-72
2022/04/30 11:42:58;;;;;;;4.27;3.33;;;;;;;;;;5053309;28;20536;-71
2022/04/30 11:45:26;;;;;;;5.23;4.17;;;;;;;;;;5053231;28;20520;-72
2022/04/30 11:47:53;;;;;;;5.23;4.07;;;;;;;;;;5053204;28;20438;-71
2022/04/30 11:50:20;;;;;;;5.07;4.67;;;;;;;;;;5052766;28;20445;-71
2022/04/30 11:52:48;;;;;;;5.10;4.17;;;;;;;;;;5052986;28;20487;-70
2022/04/30 11:55:15;;;;;;;7.70;4.23;;;;;;;;;;5052989;28;20452;-71
2022/04/30 11:57:45;;;;;;;6.83;3.93;;;;;;;;;;5053196;28;20454;-71
2022/04/30 12:00:14;;;;;;;5.30;4.03;;;;;;;;;;5053030;28;20941;-71
2022/04/30 12:02:41;;;;;;;4.50;4.10;;;;;;;;;;5053292;28;20468;-71
2022/04/30 12:05:09;;;;;;;4.13;3.80;;;;;;;;;;5052594;28;20448;-71
2022/04/30 12:07:37;;;;;;;4.73;3.80;;;;;;;;;;5052792;28;20437;-72
2022/04/30 12:10:15;;;;;;;6.50;4.50;;;;;;;;;;5052805;28;20433;-73
2022/04/30 12:12:42;;;;;;;4.50;4.10;;;;;;;;;;5053034;28;20433;-72
2022/04/30 12:15:19;;;;;;;6.00;4.33;;;;;;;;;;5052885;28;20443;-72
2022/04/30 12:24:40;;;;;;;4.30;3.90;;;;;;;;;;5053384;28;20799;-71
2022/04/30 12:26:09;;;;;;;4.23;3.93;;;;;;;;;;5056354;28;20402;-71
2022/04/30 12:28:45;;;;;;;3.53;3.23;;;;;;;;;;5056622;28;20453;-70
2022/04/30 12:31:13;;;;;;;5.60;3.90;;;;;;;;;;5056354;28;20451;-70
2022/04/30 12:33:45;;;;;;;6.33;4.27;;;;;;;;;;5056325;28;20482;-71
2022/04/30 12:36:13;;;;;;;6.17;4.53;;;;;;;;;;5055996;28;20446;-70
2022/04/30 12:38:40;;;;;;;5.77;4.30;;;;;;;;;;5056291;28;20475;-70
2022/04/30 12:41:13;;;;;;;4.03;3.63;;;;;;;;;;5056607;28;20806;-71
2022/04/30 12:43:40;;;;;;;4.60;3.57;;;;;;;;;;5056093;28;20431;-71
2022/04/30 12:46:08;;;;;;;5.60;3.77;;;;;;;;;;5055183;28;20447;-70
2022/04/30 12:48:37;;;;;;;4.20;3.37;;;;;;;;;;5055727;28;21022;-70
2022/04/30 12:51:05;;;;;;;3.80;3.10;;;;;;;;;;5056123;28;20449;-71
2022/04/30 12:53:32;;;;;;;8.43;3.70;;;;;;;;;;5055176;28;20484;-71
2022/04/30 12:56:00;;;;;;;7.60;3.57;;;;;;;;;;5055595;28;20450;-70
2022/04/30 12:58:27;;;;;;;6.70;4.00;;;;;;;;;;5055925;28;20515;-70
2022/04/30 13:00:54;;;;;;;4.07;3.57;;;;;;;;;;5055841;28;20443;-71
2022/04/30 13:03:22;;;;;;;4.73;3.60;;;;;;;;;;5055988;28;20457;-70
2022/04/30 13:05:51;;;;;;;9.43;3.73;;;;;;;;;;5055742;28;20445;-71
2022/04/30 13:08:18;;;;;;;3.93;3.60;;;;;;;;;;5056023;28;20463;-70
2022/04/30 13:13:34;;;;;;;4.97;3.40;;;;;;;;;;5055042;28;20457;-70
2022/04/30 13:16:03;;;;;;;5.67;3.70;;;;;;;;;;5055803;28;20440;-70
2022/04/30 13:18:31;;;;;;;3.83;3.53;;;;;;;;;;5056375;28;20524;-70
2022/04/30 13:21:00;;;;;;;3.30;3.10;;;;;;;;;;5055153;28;20449;-71
2022/04/30 13:23:27;;;;;;;3.20;2.90;;;;;;;;;;5055026;28;20495;-70
2022/04/30 13:25:54;;;;;;;5.03;3.73;;;;;;;;;;5055415;28;20444;-70
2022/04/30 13:28:22;;;;;;;5.87;4.03;;;;;;;;;;5055174;28;20450;-70
2022/04/30 13:30:49;;;;;;;4.67;3.50;;;;;;;;;;5054087;28;20445;-70
2022/04/30 13:33:16;;;;;;;8.23;3.43;;;;;;;;;;5054732;28;20477;-71
2022/04/30 13:35:44;;;;;;;8.67;3.30;;;;;;;;;;5055115;28;20841;-70
2022/04/30 13:38:12;;;;;;;4.57;3.20;;;;;;;;;;5054681;28;20520;-70
2022/04/30 13:40:39;;;;;;;3.50;3.00;;;;;;;;;;5055048;28;20526;-70
2022/04/30 13:43:07;;;;;;;3.97;3.57;;;;;;;;;;5055090;28;20542;-70
2022/04/30 13:45:34;;;;;;;3.50;2.93;;;;;;;;;;5055329;28;20457;-70
2022/04/30 13:48:02;;;;;;;2.93;2.60;;;;;;;;;;5054969;28;20448;-70
2022/04/30 13:50:29;;;;;;;3.20;2.90;;;;;;;;;;5054842;28;20520;-70
2022/04/30 13:52:56;;;;;;;2.80;2.60;;;;;;;;;;5054380;28;20447;-70
2022/04/30 13:55:26;;;;;;;3.40;3.07;;;;;;;;;;5054376;28;20517;-70
2022/04/30 13:57:53;;;;;;;3.73;3.10;;;;;;;;;;5054795;28;20441;-70
2022/04/30 14:00:21;;;;;;;5.13;3.40;;;;;;;;;;5054513;28;20469;-70
2022/04/30 14:02:49;;;;;;;3.17;2.80;;;;;;;;;;5054321;28;20450;-70
2022/04/30 14:05:16;;;;;;;5.33;3.43;;;;;;;;;;5054933;28;20442;-70
2022/04/30 14:07:44;;;;;;;3.13;2.93;;;;;;;;;;5054063;28;20954;-70
2022/04/30 14:10:11;;;;;;;3.63;3.17;;;;;;;;;;5054210;28;21006;-70
2022/04/30 14:12:39;;;;;;;4.10;3.10;;;;;;;;;;5053530;28;20444;-70
2022/04/30 14:15:08;;;;;;;4.17;3.10;;;;;;;;;;5054418;28;20477;-70
2022/04/30 14:20:20;;;;;;;4.87;2.50;;;;;;;;;;5054279;28;20402;-70
2022/04/30 14:22:53;;;;;;;2.57;2.47;;;;;;;;;;5054176;28;20780;-70
2022/04/30 14:25:22;;;;;;;2.80;2.60;;;;;;;;;;5054265;28;20438;-70
2022/04/30 14:27:51;;;;;;;4.00;3.50;;;;;;;;;;5054193;28;20538;-70
2022/04/30 14:30:18;;;;;;;3.90;2.40;;;;;;;;;;5053811;28;20458;-69
2022/04/30 14:32:48;;;;;;;10.70;2.90;;;;;;;;;;5053544;28;20846;-70
2022/04/30 14:35:15;;;;;;;5.30;2.60;;;;;;;;;;5053561;28;20473;-70
2022/04/30 14:37:42;;;;;;;6.77;2.30;;;;;;;;;;5053725;28;20481;-69
2022/04/30 14:40:10;;;;;;;2.70;2.50;;;;;;;;;;5054125;28;20479;-70
2022/04/30 14:42:38;;;;;;;2.20;2.10;;;;;;;;;;5053459;28;20440;-70
2022/04/30 14:45:07;;;;;;;2.80;2.60;;;;;;;;;;5053664;28;20928;-70
2022/04/30 14:47:34;;;;;;;7.70;2.50;;;;;;;;;;5053369;28;20446;-70
2022/04/30 14:50:08;;;;;;;3.27;2.73;;;;;;;;;;5053907;28;20437;-70
2022/04/30 14:52:35;;;;;;;4.53;2.30;;;;;;;;;;5053198;28;20501;-70
2022/04/30 14:55:04;;;;;;;2.60;2.40;;;;;;;;;;5053581;28;20482;-70
2022/04/30 14:57:31;;;;;;;4.03;2.80;;;;;;;;;;5053540;28;20535;-70
2022/04/30 14:59:59;;;;;;;4.27;2.53;;;;;;;;;;5053695;28;20442;-70
2022/04/30 15:02:27;;;;;;;7.33;3.40;;;;;;;;;;5053407;28;20450;-70
2022/04/30 15:04:55;;;;;;;3.50;2.83;;;;;;;;;;5053542;28;20445;-70
2022/04/30 15:07:22;;;;;;;3.60;2.57;;;;;;;;;;5053341;28;20536;-70
2022/04/30 15:09:50;;;;;;;6.60;2.70;;;;;;;;;;5053105;28;20447;-70
2022/04/30 15:12:17;;;;;;;2.97;2.77;;;;;;;;;;5052614;28;20457;-70
2022/04/30 15:14:44;;;;;;;10.63;3.10;;;;;;;;;;5053076;28;20480;-70
2022/04/30 15:17:12;;;;;;;4.43;3.30;;;;;;;;;;5053221;28;20448;-70
2022/04/30 15:19:41;;;;;;;3.47;3.00;;;;;;;;;;5053422;28;20453;-70
2022/04/30 15:22:08;;;;;;;6.90;4.30;;;;;;;;;;5053230;28;20446;-70
2022/04/30 15:24:35;;;;;;;4.53;4.13;;;;;;;;;;5053292;28;20448;-70
2022/04/30 15:27:03;;;;;;;5.43;3.40;;;;;;;;;;5053282;28;20447;-70